createdAt,value
2018-07-14T00:00:50.429Z,23.40
2018-07-14T00:01:56.755Z,23.40
2018-07-14T00:03:00.148Z,23.40
2018-07-14T00:04:03.555Z,23.40
2018-07-14T00:05:08.056Z,23.40
2018-07-14T00:06:13.020Z,23.40
2018-07-14T00:07:16.435Z,23.40
2018-07-14T00:08:19.823Z,23.40
2018-07-14T00:09:23.209Z,23.40
2018-07-14T00:10:31.385Z,23.40
2018-07-14T00:11:34.991Z,23.40
2018-07-14T00:12:38.390Z,23.30
2018-07-14T00:13:41.907Z,23.30
2018-07-14T00:16:52.119Z,23.30
2018-07-14T00:17:55.501Z,23.30
2018-07-14T00:18:58.871Z,23.30
2018-07-14T00:20:02.266Z,23.30
2018-07-14T00:21:07.798Z,23.30
2018-07-14T00:22:11.230Z,23.30
2018-07-14T00:23:14.615Z,23.30
2018-07-14T00:24:18.039Z,23.30
2018-07-14T00:26:30.787Z,23.20
2018-07-14T00:27:34.186Z,23.20
2018-07-14T00:28:37.564Z,23.20
2018-07-14T00:29:40.955Z,23.20
2018-07-14T00:30:45.450Z,23.20
2018-07-14T00:31:48.851Z,23.10
2018-07-14T00:32:52.237Z,23.10
2018-07-14T00:33:55.627Z,23.10
2018-07-14T00:34:59.039Z,23.10
2018-07-14T00:36:03.458Z,23.00
2018-07-14T00:37:06.847Z,23.00
2018-07-14T00:38:10.240Z,23.00
2018-07-14T00:39:13.615Z,23.00
2018-07-14T00:40:18.075Z,23.00
2018-07-14T00:41:22.431Z,22.90
2018-07-14T00:42:25.827Z,22.90
2018-07-14T00:43:29.206Z,22.90
2018-07-14T00:44:32.592Z,22.90
2018-07-14T00:45:37.020Z,22.90
2018-07-14T00:46:40.432Z,22.80
2018-07-14T00:47:43.815Z,22.80
2018-07-14T00:48:47.203Z,22.80
2018-07-14T00:49:50.631Z,22.80
2018-07-14T00:50:55.044Z,22.80
2018-07-14T00:51:58.592Z,22.80
2018-07-14T00:53:02.088Z,22.80
2018-07-14T00:54:05.467Z,22.80
2018-07-14T00:55:10.603Z,22.80
2018-07-14T00:56:15.129Z,22.80
2018-07-14T00:57:18.588Z,22.80
2018-07-14T00:58:21.971Z,22.80
2018-07-14T00:59:25.348Z,22.80
2018-07-14T01:00:29.845Z,22.80
2018-07-14T01:01:33.380Z,22.80
2018-07-14T01:02:36.763Z,22.80
2018-07-14T01:03:40.148Z,22.80
2018-07-14T01:04:43.535Z,22.80
2018-07-14T01:05:47.889Z,22.80
2018-07-14T01:06:51.294Z,22.80
2018-07-14T01:07:54.683Z,22.80
2018-07-14T01:08:58.195Z,22.80
2018-07-14T01:10:01.588Z,22.80
2018-07-14T01:11:06.764Z,22.70
2018-07-14T01:12:10.195Z,22.80
2018-07-14T01:13:13.579Z,22.70
2018-07-14T01:14:16.963Z,22.70
2018-07-14T01:15:21.479Z,22.70
2018-07-14T01:16:26.494Z,22.70
2018-07-14T01:17:29.904Z,22.70
2018-07-14T01:18:33.291Z,22.70
2018-07-14T01:19:36.723Z,22.70
2018-07-14T01:20:41.204Z,22.70
2018-07-14T01:21:44.647Z,22.70
2018-07-14T01:22:48.052Z,22.70
2018-07-14T01:23:51.440Z,22.60
2018-07-14T01:24:54.838Z,22.60
2018-07-14T01:25:59.258Z,22.60
2018-07-14T01:27:02.732Z,22.60
2018-07-14T01:28:06.174Z,22.60
2018-07-14T01:29:09.547Z,22.60
2018-07-14T01:31:17.999Z,22.50
2018-07-14T01:32:21.811Z,22.50
2018-07-14T01:33:25.200Z,22.50
2018-07-14T01:34:28.574Z,22.50
2018-07-14T01:35:33.642Z,22.50
2018-07-14T01:36:37.053Z,22.50
2018-07-14T01:37:40.455Z,22.50
2018-07-14T01:38:43.839Z,22.50
2018-07-14T01:39:47.229Z,22.50
2018-07-14T01:40:52.582Z,22.50
2018-07-14T01:41:55.979Z,22.40
2018-07-14T01:42:59.416Z,22.40
2018-07-14T01:44:02.804Z,22.40
2018-07-14T01:45:07.215Z,22.30
2018-07-14T01:46:11.725Z,22.30
2018-07-14T01:47:15.191Z,22.20
2018-07-14T01:49:21.705Z,22.20
2018-07-14T01:50:26.166Z,22.30
2018-07-14T01:51:30.123Z,22.20
2018-07-14T01:52:33.515Z,22.20
2018-07-14T01:53:36.915Z,22.20
2018-07-14T01:54:40.324Z,22.20
2018-07-14T01:55:44.804Z,22.20
2018-07-14T01:56:48.191Z,22.20
2018-07-14T01:57:51.570Z,22.20
2018-07-14T01:58:54.972Z,22.20
2018-07-14T01:59:58.351Z,22.20
2018-07-14T02:01:02.844Z,22.20
2018-07-14T02:02:06.281Z,22.10
2018-07-14T02:03:09.663Z,22.10
2018-07-14T02:04:13.123Z,22.10
2018-07-14T02:05:17.573Z,22.10
2018-07-14T02:06:21.953Z,22.10
2018-07-14T02:07:25.370Z,22.10
2018-07-14T02:08:28.753Z,22.10
2018-07-14T02:09:32.156Z,22.10
2018-07-14T02:10:36.719Z,22.10
2018-07-14T02:11:40.143Z,22.10
2018-07-14T02:12:43.555Z,22.10
2018-07-14T02:13:47.124Z,22.10
2018-07-14T02:14:50.551Z,22.10
2018-07-14T02:15:54.925Z,22.10
2018-07-14T02:16:58.437Z,22.10
2018-07-14T02:18:01.820Z,22.00
2018-07-14T02:19:05.203Z,22.00
2018-07-14T02:20:09.287Z,22.00
2018-07-14T02:21:13.900Z,22.00
2018-07-14T02:22:17.311Z,22.00
2018-07-14T02:23:20.699Z,22.00
2018-07-14T02:24:24.187Z,22.00
2018-07-14T02:25:29.641Z,22.00
2018-07-14T02:27:36.135Z,22.00
2018-07-14T02:29:42.912Z,22.00
2018-07-14T02:31:50.621Z,21.90
2018-07-14T02:32:54.002Z,21.90
2018-07-14T02:33:57.388Z,21.90
2018-07-14T02:35:00.787Z,21.90
2018-07-14T02:36:05.420Z,21.90
2018-07-14T02:38:11.940Z,21.90
2018-07-14T02:39:15.322Z,21.90
2018-07-14T02:40:19.863Z,21.90
2018-07-14T02:41:24.379Z,21.90
2018-07-14T02:42:27.806Z,21.90
2018-07-14T02:43:31.203Z,21.90
2018-07-14T02:44:34.583Z,21.90
2018-07-14T02:45:39.245Z,21.90
2018-07-14T02:46:42.708Z,21.80
2018-07-14T02:47:46.095Z,21.90
2018-07-14T02:49:52.555Z,21.90
2018-07-14T02:50:57.835Z,21.90
2018-07-14T02:52:01.328Z,21.90
2018-07-14T02:53:05.031Z,21.90
2018-07-14T02:54:08.412Z,21.90
2018-07-14T02:55:12.847Z,21.90
2018-07-14T02:57:20.080Z,21.90
2018-07-14T02:58:23.475Z,21.80
2018-07-14T02:59:26.858Z,21.80
2018-07-14T03:00:31.287Z,21.80
2018-07-14T03:01:34.888Z,21.80
2018-07-14T03:02:38.301Z,21.80
2018-07-14T03:03:41.739Z,21.90
2018-07-14T03:04:45.177Z,21.80
2018-07-14T03:06:52.459Z,21.80
2018-07-14T03:08:59.183Z,21.80
2018-07-14T03:10:02.963Z,21.80
2018-07-14T03:11:07.565Z,21.70
2018-07-14T03:12:11.028Z,21.70
2018-07-14T03:15:21.761Z,21.70
2018-07-14T03:17:28.940Z,21.60
2018-07-14T03:18:32.319Z,21.60
2018-07-14T03:19:35.985Z,21.60
2018-07-14T03:20:40.352Z,21.60
2018-07-14T03:21:43.831Z,21.60
2018-07-14T03:22:47.284Z,21.50
2018-07-14T03:23:50.663Z,21.50
2018-07-14T03:24:54.048Z,21.50
2018-07-14T03:25:58.416Z,21.50
2018-07-14T03:27:01.824Z,21.50
2018-07-14T03:29:08.535Z,21.40
2018-07-14T03:30:13.015Z,21.40
2018-07-14T03:31:17.440Z,21.40
2018-07-14T03:32:20.864Z,21.40
2018-07-14T03:33:30.811Z,21.40
2018-07-14T03:34:34.246Z,21.40
2018-07-14T03:35:38.735Z,21.40
2018-07-14T03:36:42.195Z,21.40
2018-07-14T03:37:45.572Z,21.30
2018-07-14T03:38:48.975Z,21.30
2018-07-14T03:39:52.351Z,21.30
2018-07-14T03:40:56.768Z,21.30
2018-07-14T03:43:03.263Z,21.30
2018-07-14T03:44:06.675Z,21.30
2018-07-14T03:45:11.762Z,21.20
2018-07-14T03:46:16.236Z,21.20
2018-07-14T03:48:22.724Z,21.20
2018-07-14T03:49:26.123Z,21.20
2018-07-14T03:53:39.648Z,21.20
2018-07-14T03:54:43.050Z,21.20
2018-07-14T03:57:53.787Z,21.20
2018-07-14T03:58:57.175Z,21.20
2018-07-14T04:00:00.588Z,21.20
2018-07-14T04:01:05.190Z,21.20
2018-07-14T04:02:08.623Z,21.20
2018-07-14T04:03:12.010Z,21.20
2018-07-14T04:04:15.391Z,21.20
2018-07-14T04:05:19.913Z,21.20
2018-07-14T04:06:25.029Z,21.20
2018-07-14T04:07:28.455Z,21.20
2018-07-14T04:08:31.852Z,21.20
2018-07-14T04:09:35.232Z,21.20
2018-07-14T04:10:40.062Z,21.20
2018-07-14T04:13:49.682Z,21.20
2018-07-14T04:14:53.112Z,21.20
2018-07-14T04:17:00.371Z,21.20
2018-07-14T04:18:05.188Z,21.20
2018-07-14T04:19:08.576Z,21.20
2018-07-14T04:20:13.625Z,21.20
2018-07-14T04:21:18.778Z,21.20
2018-07-14T04:22:22.199Z,21.20
2018-07-14T04:23:25.584Z,21.20
2018-07-14T04:24:28.971Z,21.20
2018-07-14T04:25:33.186Z,21.20
2018-07-14T04:26:36.631Z,21.20
2018-07-14T04:27:40.042Z,21.20
2018-07-14T04:28:43.435Z,21.10
2018-07-14T04:29:46.831Z,21.10
2018-07-14T04:30:52.273Z,21.10
2018-07-14T04:31:55.706Z,21.10
2018-07-14T04:32:59.088Z,21.10
2018-07-14T04:34:02.493Z,21.00
2018-07-14T04:35:05.903Z,21.00
2018-07-14T04:36:10.245Z,21.00
2018-07-14T04:38:16.749Z,21.00
2018-07-14T04:39:20.132Z,21.10
2018-07-14T04:40:24.561Z,21.10
2018-07-14T04:41:28.695Z,21.10
2018-07-14T04:42:32.201Z,21.10
2018-07-14T04:46:46.043Z,21.00
2018-07-14T04:47:49.467Z,21.00
2018-07-14T04:48:52.867Z,21.00
2018-07-14T04:49:56.252Z,21.00
2018-07-14T04:51:00.785Z,21.00
2018-07-14T04:52:04.248Z,21.00
2018-07-14T04:53:07.701Z,21.00
2018-07-14T04:54:11.063Z,21.00
2018-07-14T04:55:17.013Z,21.00
2018-07-14T04:57:24.180Z,21.00
2018-07-14T04:58:27.587Z,21.10
2018-07-14T04:59:30.984Z,21.10
2018-07-14T05:00:35.472Z,21.10
2018-07-14T05:01:38.949Z,21.10
2018-07-14T05:02:42.331Z,21.10
2018-07-14T05:03:45.735Z,21.10
2018-07-14T05:04:49.107Z,21.10
2018-07-14T05:05:53.606Z,21.10
2018-07-14T05:06:57.020Z,21.10
2018-07-14T05:08:00.415Z,21.10
2018-07-14T05:09:04.491Z,21.10
2018-07-14T05:10:09.008Z,21.10
2018-07-14T05:11:13.640Z,21.10
2018-07-14T05:12:17.055Z,21.20
2018-07-14T05:13:20.559Z,21.20
2018-07-14T05:14:23.959Z,21.20
2018-07-14T05:15:28.422Z,21.20
2018-07-14T05:16:31.836Z,21.20
2018-07-14T05:17:35.215Z,21.10
2018-07-14T05:19:41.832Z,21.20
2018-07-14T05:20:46.366Z,21.20
2018-07-14T05:22:53.604Z,21.20
2018-07-14T05:23:57.003Z,21.20
2018-07-14T05:25:00.387Z,21.20
2018-07-14T05:26:05.071Z,21.20
2018-07-14T05:27:08.488Z,21.20
2018-07-14T05:28:11.890Z,21.20
2018-07-14T05:29:15.287Z,21.20
2018-07-14T05:30:19.714Z,21.20
2018-07-14T05:31:24.473Z,21.20
2018-07-14T05:32:27.917Z,21.20
2018-07-14T05:33:31.299Z,21.20
2018-07-14T05:34:34.691Z,21.20
2018-07-14T05:35:39.707Z,21.20
2018-07-14T05:36:43.115Z,21.20
2018-07-14T05:39:52.707Z,21.30
2018-07-14T05:40:57.099Z,21.30
2018-07-14T05:42:00.531Z,21.30
2018-07-14T05:43:03.956Z,21.30
2018-07-14T05:44:07.386Z,21.30
2018-07-14T05:45:11.732Z,21.30
2018-07-14T05:46:16.188Z,21.30
2018-07-14T05:47:19.608Z,21.30
2018-07-14T05:48:23.091Z,21.30
2018-07-14T05:49:26.487Z,21.30
2018-07-14T05:50:30.797Z,21.30
2018-07-14T05:52:37.820Z,21.30
2018-07-14T05:53:41.239Z,21.40
2018-07-14T05:54:44.631Z,21.40
2018-07-14T05:55:50.194Z,21.40
2018-07-14T05:56:53.607Z,21.40
2018-07-14T05:57:57.036Z,21.40
2018-07-14T05:59:00.468Z,21.40
2018-07-14T06:00:04.185Z,21.40
2018-07-14T06:01:09.069Z,21.40
2018-07-14T06:02:12.500Z,21.40
2018-07-14T06:03:15.895Z,21.40
2018-07-14T06:04:19.279Z,21.40
2018-07-14T06:05:23.652Z,21.40
2018-07-14T06:06:28.143Z,21.40
2018-07-14T06:07:31.547Z,21.40
2018-07-14T06:08:34.955Z,21.40
2018-07-14T06:09:38.341Z,21.40
2018-07-14T06:10:42.900Z,21.40
2018-07-14T06:11:46.299Z,21.40
2018-07-14T06:12:49.719Z,21.50
2018-07-14T06:13:53.119Z,21.50
2018-07-14T06:14:56.498Z,21.50
2018-07-14T06:16:00.999Z,21.50
2018-07-14T06:17:04.432Z,21.40
2018-07-14T06:18:07.839Z,21.40
2018-07-14T06:19:11.227Z,21.40
2018-07-14T06:20:15.649Z,21.40
2018-07-14T06:21:20.030Z,21.40
2018-07-14T06:23:26.555Z,21.40
2018-07-14T06:24:29.955Z,21.40
2018-07-14T06:25:34.504Z,21.50
2018-07-14T06:26:37.971Z,21.50
2018-07-14T06:27:41.364Z,21.50
2018-07-14T06:28:44.772Z,21.50
2018-07-14T06:29:48.164Z,21.50
2018-07-14T06:30:52.547Z,21.50
2018-07-14T06:31:56.062Z,21.50
2018-07-14T06:32:59.389Z,21.50
2018-07-14T06:34:02.786Z,21.40
2018-07-14T06:35:07.895Z,21.40
2018-07-14T06:36:12.362Z,21.40
2018-07-14T06:37:15.799Z,21.40
2018-07-14T06:38:19.223Z,21.40
2018-07-14T06:39:22.599Z,21.50
2018-07-14T06:40:27.772Z,21.50
2018-07-14T06:41:31.237Z,21.50
2018-07-14T06:42:34.627Z,21.50
2018-07-14T06:43:38.060Z,21.50
2018-07-14T06:44:41.473Z,21.50
2018-07-14T06:45:45.898Z,21.40
2018-07-14T06:46:49.315Z,21.50
2018-07-14T06:47:52.722Z,21.40
2018-07-14T06:48:56.123Z,21.50
2018-07-14T06:49:59.517Z,21.50
2018-07-14T06:51:03.879Z,21.50
2018-07-14T06:52:07.491Z,21.50
2018-07-14T06:53:10.900Z,21.60
2018-07-14T06:54:14.342Z,21.60
2018-07-14T06:55:18.798Z,21.60
2018-07-14T06:56:23.380Z,21.60
2018-07-14T06:57:26.903Z,21.60
2018-07-14T06:58:30.315Z,21.60
2018-07-14T06:59:33.695Z,21.60
2018-07-14T07:00:38.001Z,21.60
2018-07-14T07:02:44.599Z,21.50
2018-07-14T07:04:51.099Z,21.60
2018-07-14T07:05:56.386Z,21.60
2018-07-14T07:06:59.795Z,21.60
2018-07-14T07:08:03.183Z,21.60
2018-07-14T07:09:06.595Z,21.60
2018-07-14T07:10:11.016Z,21.70
2018-07-14T07:11:15.531Z,21.70
2018-07-14T07:12:18.951Z,21.70
2018-07-14T07:13:22.370Z,21.70
2018-07-14T07:14:25.779Z,21.70
2018-07-14T07:15:30.276Z,21.70
2018-07-14T07:16:33.705Z,21.70
2018-07-14T07:17:37.280Z,21.70
2018-07-14T07:18:47.199Z,21.70
2018-07-14T07:19:50.599Z,21.70
2018-07-14T07:20:55.177Z,21.70
2018-07-14T07:21:58.597Z,21.80
2018-07-14T07:23:01.997Z,21.80
2018-07-14T07:24:05.415Z,21.80
2018-07-14T07:25:10.632Z,21.90
2018-07-14T07:26:15.242Z,21.80
2018-07-14T07:27:18.659Z,21.90
2018-07-14T07:28:22.088Z,21.90
2018-07-14T07:29:25.528Z,21.90
2018-07-14T07:30:30.594Z,22.00
2018-07-14T07:31:34.047Z,22.00
2018-07-14T07:33:40.611Z,22.00
2018-07-14T07:34:44.044Z,22.00
2018-07-14T07:35:48.587Z,22.10
2018-07-14T07:36:52.195Z,22.10
2018-07-14T07:37:55.628Z,22.10
2018-07-14T07:38:59.347Z,22.10
2018-07-14T07:40:02.801Z,22.10
2018-07-14T07:41:07.190Z,22.10
2018-07-14T07:42:10.725Z,22.20
2018-07-14T07:43:14.098Z,22.10
2018-07-14T07:44:17.483Z,22.20
2018-07-14T07:45:21.942Z,22.20
2018-07-14T07:46:26.412Z,22.20
2018-07-14T07:47:29.816Z,22.20
2018-07-14T07:48:33.203Z,22.20
2018-07-14T07:49:36.624Z,22.20
2018-07-14T07:50:41.001Z,22.20
2018-07-14T07:52:47.507Z,22.30
2018-07-14T07:53:50.911Z,22.30
2018-07-14T07:54:54.315Z,22.30
2018-07-14T07:55:58.700Z,22.30
2018-07-14T07:57:02.109Z,22.30
2018-07-14T07:58:05.518Z,22.40
2018-07-14T07:59:09.016Z,22.40
2018-07-14T08:00:13.504Z,22.40
2018-07-14T08:01:17.844Z,22.40
2018-07-14T08:02:21.263Z,22.40
2018-07-14T08:03:24.659Z,22.40
2018-07-14T08:04:28.063Z,22.40
2018-07-14T08:05:33.426Z,22.40
2018-07-14T08:07:42.844Z,22.50
2018-07-14T08:08:46.294Z,22.50
2018-07-14T08:09:49.657Z,22.50
2018-07-14T08:10:53.953Z,22.50
2018-07-14T08:11:57.392Z,22.50
2018-07-14T08:13:00.808Z,22.50
2018-07-14T08:14:04.606Z,22.50
2018-07-14T08:15:15.327Z,22.50
2018-07-14T08:16:20.290Z,22.50
2018-07-14T08:17:23.718Z,22.50
2018-07-14T08:18:27.115Z,22.50
2018-07-14T08:19:30.538Z,22.60
2018-07-14T08:20:35.031Z,22.60
2018-07-14T08:21:38.476Z,22.60
2018-07-14T08:22:41.935Z,22.60
2018-07-14T08:23:45.296Z,22.60
2018-07-14T08:24:48.735Z,22.70
2018-07-14T08:26:55.959Z,22.70
2018-07-14T08:27:59.367Z,22.70
2018-07-14T08:29:02.762Z,22.70
2018-07-14T08:30:07.432Z,22.70
2018-07-14T08:31:11.876Z,22.70
2018-07-14T08:32:15.318Z,22.70
2018-07-14T08:33:18.783Z,22.70
2018-07-14T08:34:22.187Z,22.70
2018-07-14T08:35:26.728Z,22.80
2018-07-14T08:36:30.413Z,22.80
2018-07-14T08:37:33.803Z,22.80
2018-07-14T08:38:37.196Z,22.80
2018-07-14T08:39:40.621Z,22.80
2018-07-14T08:40:45.224Z,22.90
2018-07-14T08:41:48.656Z,22.90
2018-07-14T08:42:52.070Z,22.90
2018-07-14T08:44:02.031Z,22.90
2018-07-14T08:45:07.631Z,22.90
2018-07-14T08:46:12.230Z,23.00
2018-07-14T08:47:15.648Z,22.90
2018-07-14T08:48:19.064Z,22.90
2018-07-14T08:49:22.477Z,23.00
2018-07-14T08:50:27.500Z,23.00
2018-07-14T08:51:30.941Z,23.00
2018-07-14T08:52:34.363Z,23.00
2018-07-14T08:53:37.755Z,23.10
2018-07-14T08:54:41.171Z,23.10
2018-07-14T08:55:45.628Z,23.10
2018-07-14T08:56:49.048Z,23.10
2018-07-14T08:57:52.435Z,23.10
2018-07-14T08:59:58.939Z,23.10
2018-07-14T09:01:03.326Z,23.20
2018-07-14T09:02:06.743Z,23.20
2018-07-14T09:03:10.136Z,23.30
2018-07-14T09:04:13.543Z,23.20
2018-07-14T09:05:18.076Z,23.20
2018-07-14T09:06:22.406Z,23.30
2018-07-14T09:07:25.842Z,23.30
2018-07-14T09:08:29.229Z,23.30
2018-07-14T09:09:32.647Z,23.30
2018-07-14T09:10:37.002Z,23.30
2018-07-14T09:12:43.515Z,23.30
2018-07-14T09:13:46.936Z,23.40
2018-07-14T09:14:50.344Z,23.40
2018-07-14T09:15:55.015Z,23.40
2018-07-14T09:16:58.504Z,23.40
2018-07-14T09:18:01.900Z,23.40
2018-07-14T09:19:05.307Z,23.40
2018-07-14T09:20:09.880Z,23.40
2018-07-14T09:21:14.441Z,23.40
2018-07-14T09:22:17.868Z,23.50
2018-07-14T09:23:21.261Z,23.50
2018-07-14T09:24:24.674Z,23.50
2018-07-14T09:25:29.179Z,23.50
2018-07-14T09:26:32.606Z,23.50
2018-07-14T09:27:36.020Z,23.50
2018-07-14T09:28:39.395Z,23.50
2018-07-14T09:29:42.784Z,23.50
2018-07-14T09:30:47.276Z,23.50
2018-07-14T09:31:50.695Z,23.50
2018-07-14T09:32:54.088Z,23.50
2018-07-14T09:35:00.595Z,23.50
2018-07-14T09:36:05.013Z,23.50
2018-07-14T09:37:08.435Z,23.60
2018-07-14T09:38:11.808Z,23.60
2018-07-14T09:39:15.205Z,23.60
2018-07-14T09:40:19.639Z,23.60
2018-07-14T09:41:23.938Z,23.70
2018-07-14T09:43:30.426Z,23.70
2018-07-14T09:44:33.865Z,23.70
2018-07-14T09:45:38.357Z,23.80
2018-07-14T09:46:41.776Z,23.80
2018-07-14T09:47:45.191Z,23.80
2018-07-14T09:49:51.652Z,23.80
2018-07-14T09:50:56.179Z,23.80
2018-07-14T09:51:59.595Z,23.80
2018-07-14T09:53:02.995Z,23.80
2018-07-14T09:54:12.831Z,23.80
2018-07-14T09:55:17.322Z,23.80
2018-07-14T09:56:21.712Z,23.80
2018-07-14T09:57:25.175Z,23.90
2018-07-14T09:58:28.724Z,23.90
2018-07-14T09:59:32.124Z,23.90
2018-07-14T10:00:36.788Z,24.00
2018-07-14T10:01:40.200Z,24.00
2018-07-14T10:02:43.591Z,24.00
2018-07-14T10:03:46.983Z,24.00
2018-07-14T10:04:50.391Z,24.00
2018-07-14T10:06:57.663Z,24.10
2018-07-14T10:08:01.094Z,24.10
2018-07-14T10:09:05.059Z,24.10
2018-07-14T10:10:08.640Z,24.10
2018-07-14T10:11:13.005Z,24.10
2018-07-14T10:12:16.419Z,24.10
2018-07-14T10:13:19.869Z,24.10
2018-07-14T10:14:23.238Z,24.10
2018-07-14T10:16:30.597Z,24.10
2018-07-14T10:17:34.025Z,24.20
2018-07-14T10:18:37.399Z,24.20
2018-07-14T10:20:45.329Z,24.20
2018-07-14T10:21:48.775Z,24.20
2018-07-14T10:26:02.558Z,24.30
2018-07-14T10:27:06.012Z,24.30
2018-07-14T10:30:16.453Z,24.30
2018-07-14T10:31:21.458Z,24.30
2018-07-14T10:32:24.883Z,24.30
2018-07-14T10:34:31.440Z,24.30
2018-07-14T10:35:36.262Z,24.30
2018-07-14T10:36:39.691Z,24.30
2018-07-14T10:37:43.091Z,24.30
2018-07-14T10:38:46.527Z,24.30
2018-07-14T10:39:49.911Z,24.30
2018-07-14T10:40:54.522Z,24.30
2018-07-14T10:41:57.949Z,24.30
2018-07-14T10:43:01.372Z,24.40
2018-07-14T10:44:04.769Z,24.40
2018-07-14T10:45:09.271Z,24.50
2018-07-14T10:47:16.664Z,24.50
2018-07-14T10:48:20.064Z,24.50
2018-07-14T10:49:23.452Z,24.50
2018-07-14T10:50:27.952Z,24.50
2018-07-14T10:52:34.482Z,24.50
2018-07-14T10:53:37.883Z,24.50
2018-07-14T10:54:41.283Z,24.60
2018-07-14T10:55:45.594Z,24.60
2018-07-14T10:56:49.007Z,24.60
2018-07-14T10:57:52.411Z,24.70
2018-07-14T10:58:55.798Z,24.70
2018-07-14T10:59:59.215Z,24.80
2018-07-14T11:01:03.991Z,24.80
2018-07-14T11:02:07.543Z,24.70
2018-07-14T11:03:10.932Z,24.80
2018-07-14T11:04:14.331Z,24.70
2018-07-14T11:05:18.653Z,24.80
2018-07-14T11:06:23.142Z,24.80
2018-07-14T11:09:39.215Z,24.80
2018-07-14T11:10:43.538Z,24.80
2018-07-14T11:12:50.096Z,24.80
2018-07-14T11:13:53.487Z,24.80
2018-07-14T11:14:56.890Z,24.80
2018-07-14T11:16:01.421Z,24.80
2018-07-14T11:17:05.011Z,24.80
2018-07-14T11:18:08.411Z,24.80
2018-07-14T11:19:11.833Z,24.90
2018-07-14T11:20:16.118Z,24.90
2018-07-14T11:21:20.717Z,24.90
2018-07-14T11:22:24.258Z,24.90
2018-07-14T11:23:27.648Z,24.90
2018-07-14T11:24:31.031Z,25.00
2018-07-14T11:25:36.272Z,25.00
2018-07-14T11:26:39.714Z,25.00
2018-07-14T11:27:43.104Z,25.00
2018-07-14T11:28:46.545Z,25.00
2018-07-14T11:29:49.984Z,25.10
2018-07-14T11:30:55.466Z,25.10
2018-07-14T11:32:05.372Z,25.10
2018-07-14T11:33:08.763Z,25.20
2018-07-14T11:34:12.158Z,25.20
2018-07-14T11:35:16.273Z,25.20
2018-07-14T11:36:21.642Z,25.20
2018-07-14T11:37:25.087Z,25.30
2018-07-14T11:38:28.468Z,25.30
2018-07-14T11:39:31.871Z,25.30
2018-07-14T11:40:36.382Z,25.30
2018-07-14T11:41:39.819Z,25.30
2018-07-14T11:42:43.217Z,25.30
2018-07-14T11:43:46.600Z,25.40
2018-07-14T11:44:49.995Z,25.30
2018-07-14T11:45:54.788Z,25.40
2018-07-14T11:46:58.243Z,25.40
2018-07-14T11:49:04.728Z,25.50
2018-07-14T11:50:08.226Z,25.50
2018-07-14T11:51:12.790Z,25.50
2018-07-14T11:53:19.536Z,25.50
2018-07-14T11:54:22.999Z,25.50
2018-07-14T11:55:27.703Z,25.40
2018-07-14T11:56:31.127Z,25.40
2018-07-14T11:57:34.527Z,25.40
2018-07-14T11:58:37.945Z,25.40
2018-07-14T12:00:45.571Z,25.60
2018-07-14T12:01:49.106Z,25.60
2018-07-14T12:02:52.507Z,25.70
2018-07-14T12:04:58.999Z,25.80
2018-07-14T12:06:03.457Z,25.80
2018-07-14T12:08:10.116Z,25.80
2018-07-14T12:09:13.560Z,25.90
2018-07-14T12:10:18.968Z,25.90
2018-07-14T12:12:26.763Z,25.80
2018-07-14T12:13:30.208Z,25.80
2018-07-14T12:14:33.615Z,25.80
2018-07-14T12:15:38.496Z,25.80
2018-07-14T12:16:41.927Z,25.90
2018-07-14T12:17:45.335Z,25.90
2018-07-14T12:19:51.829Z,25.90
2018-07-14T12:20:56.337Z,25.90
2018-07-14T12:21:59.738Z,25.90
2018-07-14T12:23:03.139Z,26.00
2018-07-14T12:24:06.855Z,26.00
2018-07-14T12:25:11.112Z,26.00
2018-07-14T12:26:15.667Z,26.10
2018-07-14T12:28:25.199Z,26.20
2018-07-14T12:29:28.597Z,26.30
2018-07-14T12:30:33.402Z,26.50
2018-07-14T12:31:36.830Z,26.50
2018-07-14T12:34:46.467Z,26.70
2018-07-14T12:39:00.051Z,26.80
2018-07-14T12:40:03.972Z,26.80
2018-07-14T12:41:08.414Z,26.90
2018-07-14T12:44:18.023Z,26.90
2018-07-14T12:45:22.663Z,27.00
2018-07-14T12:47:30.020Z,27.10
2018-07-14T12:48:33.407Z,27.10
2018-07-14T12:49:36.811Z,27.20
2018-07-14T12:50:41.569Z,27.20
2018-07-14T12:51:44.976Z,27.20
2018-07-14T12:52:48.391Z,27.20
2018-07-14T12:53:51.876Z,27.30
2018-07-14T12:54:55.211Z,27.30
2018-07-14T12:57:02.476Z,27.30
2018-07-14T12:58:05.980Z,27.30
2018-07-14T12:59:09.389Z,27.30
2018-07-14T13:00:14.114Z,27.30
2018-07-14T13:01:18.707Z,27.30
2018-07-14T13:02:22.621Z,27.30
2018-07-14T13:03:26.088Z,27.40
2018-07-14T13:05:33.635Z,27.40
2018-07-14T13:06:37.085Z,27.50
2018-07-14T13:07:40.498Z,27.50
2018-07-14T13:08:43.876Z,27.50
2018-07-14T13:09:47.275Z,27.50
2018-07-14T13:10:51.767Z,27.50
2018-07-14T13:11:55.197Z,27.50
2018-07-14T13:12:58.588Z,27.60
2018-07-14T13:14:02.015Z,27.60
2018-07-14T13:15:06.977Z,27.50
2018-07-14T13:16:11.416Z,27.60
2018-07-14T13:17:14.947Z,27.60
2018-07-14T13:18:18.396Z,27.60
2018-07-14T13:20:26.520Z,27.60
2018-07-14T13:21:30.316Z,27.70
2018-07-14T13:22:33.707Z,27.70
2018-07-14T13:23:37.120Z,27.80
2018-07-14T13:24:40.515Z,27.80
2018-07-14T13:25:45.100Z,27.80
2018-07-14T13:26:48.612Z,27.80
2018-07-14T13:27:52.004Z,27.80
2018-07-14T13:28:55.407Z,27.80
2018-07-14T13:29:58.809Z,27.80
2018-07-14T13:32:06.384Z,27.80
2018-07-14T13:33:09.823Z,27.80
2018-07-14T13:34:13.247Z,27.90
2018-07-14T13:35:18.573Z,27.90
2018-07-14T13:36:22.770Z,27.90
2018-07-14T13:37:26.259Z,27.90
2018-07-14T13:38:29.682Z,27.90
2018-07-14T13:39:33.085Z,27.90
2018-07-14T13:41:40.383Z,27.90
2018-07-14T13:43:46.847Z,27.90
2018-07-14T13:44:50.291Z,27.90
2018-07-14T13:45:54.497Z,27.90
2018-07-14T13:46:57.891Z,27.90
2018-07-14T13:48:01.283Z,27.90
2018-07-14T13:49:04.692Z,27.90
2018-07-14T13:50:09.139Z,28.00
2018-07-14T13:51:13.481Z,28.10
2018-07-14T13:53:19.998Z,28.10
2018-07-14T13:54:23.387Z,28.20
2018-07-14T13:55:27.848Z,28.20
2018-07-14T13:56:33.522Z,28.20
2018-07-14T13:57:36.943Z,28.20
2018-07-14T13:58:40.351Z,28.20
2018-07-14T13:59:43.727Z,28.10
2018-07-14T14:00:48.125Z,28.20
2018-07-14T14:01:51.531Z,28.20
2018-07-14T14:02:54.913Z,28.20
2018-07-14T14:03:58.335Z,28.10
2018-07-14T14:06:05.990Z,28.10
2018-07-14T14:07:09.395Z,28.10
2018-07-14T14:08:12.779Z,28.10
2018-07-14T14:09:16.191Z,28.10
2018-07-14T14:10:20.648Z,28.20
2018-07-14T14:11:25.178Z,28.20
2018-07-14T14:12:28.560Z,28.30
2018-07-14T14:13:31.992Z,28.30
2018-07-14T14:14:35.536Z,28.30
2018-07-14T14:15:39.945Z,28.30
2018-07-14T14:16:43.335Z,28.30
2018-07-14T14:17:46.719Z,28.30
2018-07-14T14:18:50.171Z,28.30
2018-07-14T14:19:53.613Z,28.40
2018-07-14T14:20:57.955Z,28.40
2018-07-14T14:22:01.359Z,28.40
2018-07-14T14:23:04.747Z,28.40
2018-07-14T14:24:08.157Z,28.50
2018-07-14T14:25:13.126Z,28.50
2018-07-14T14:26:17.608Z,28.50
2018-07-14T14:27:21.020Z,28.50
2018-07-14T14:28:24.399Z,28.60
2018-07-14T14:30:31.894Z,28.70
2018-07-14T14:31:35.395Z,28.80
2018-07-14T14:32:38.799Z,28.80
2018-07-14T14:33:42.211Z,28.80
2018-07-14T14:34:45.737Z,28.90
2018-07-14T14:36:54.095Z,28.90
2018-07-14T14:37:57.491Z,28.90
2018-07-14T14:39:00.999Z,28.90
2018-07-14T14:40:05.268Z,28.90
2018-07-14T14:41:09.576Z,28.80
2018-07-14T14:42:13.007Z,28.80
2018-07-14T14:43:16.395Z,28.80
2018-07-14T14:44:19.783Z,28.80
2018-07-14T14:45:24.373Z,28.90
2018-07-14T14:46:28.675Z,28.90
2018-07-14T14:47:32.059Z,29.00
2018-07-14T14:48:35.455Z,29.00
2018-07-14T14:49:38.857Z,29.00
2018-07-14T14:50:43.250Z,29.10
2018-07-14T14:51:46.923Z,29.20
2018-07-14T14:52:50.515Z,29.20
2018-07-14T14:53:53.899Z,29.20
2018-07-14T14:54:57.307Z,29.20
2018-07-14T14:56:01.760Z,29.30
2018-07-14T14:57:05.220Z,29.30
2018-07-14T14:58:08.883Z,29.40
2018-07-14T14:59:12.277Z,29.40
2018-07-14T15:00:16.472Z,29.50
2018-07-14T15:01:21.707Z,29.50
2018-07-14T15:02:25.108Z,29.50
2018-07-14T15:03:28.475Z,29.60
2018-07-14T15:04:31.879Z,29.60
2018-07-14T15:05:36.708Z,29.60
2018-07-14T15:07:43.167Z,29.70
2018-07-14T15:08:46.576Z,29.70
2018-07-14T15:09:49.963Z,29.70
2018-07-14T15:11:57.203Z,29.80
2018-07-14T15:13:00.601Z,29.70
2018-07-14T15:14:04.069Z,29.70
2018-07-14T15:15:08.654Z,29.70
2018-07-14T15:16:13.116Z,29.70
2018-07-14T15:17:16.508Z,29.80
2018-07-14T15:18:19.911Z,29.90